sensor_id;sensor_type;location;lat;lon;timestamp;P1;durP1;ratioP1;P2;durP2;ratioP2
11777;SDS011;5946;51.770;8.548;2023-04-07T00:00:40;18.03;;;13.23;;
11777;SDS011;5946;51.770;8.548;2023-04-07T00:03:06;16.00;;;13.07;;
11777;SDS011;5946;51.770;8.548;2023-04-07T00:05:32;16.73;;;13.03;;
11777;SDS011;5946;51.770;8.548;2023-04-07T00:07:58;16.50;;;12.73;;
11777;SDS011;5946;51.770;8.548;2023-04-07T00:10:24;15.27;;;12.53;;
11777;SDS011;5946;51.770;8.548;2023-04-07T00:12:50;17.17;;;12.20;;
11777;SDS011;5946;51.770;8.548;2023-04-07T00:15:17;14.50;;;12.47;;
11777;SDS011;5946;51.770;8.548;2023-04-07T00:17:42;16.40;;;12.60;;
11777;SDS011;5946;51.770;8.548;2023-04-07T00:20:09;18.30;;;13.30;;
11777;SDS011;5946;51.770;8.548;2023-04-07T00:22:35;16.10;;;11.87;;
11777;SDS011;5946;51.770;8.548;2023-04-07T00:25:00;16.00;;;13.10;;
11777;SDS011;5946;51.770;8.548;2023-04-07T00:27:26;16.30;;;12.53;;
11777;SDS011;5946;51.770;8.548;2023-04-07T00:29:52;18.97;;;14.10;;
11777;SDS011;5946;51.770;8.548;2023-04-07T00:32:21;15.87;;;12.67;;
11777;SDS011;5946;51.770;8.548;2023-04-07T00:34:47;16.67;;;12.93;;
11777;SDS011;5946;51.770;8.548;2023-04-07T00:37:13;18.73;;;13.83;;
11777;SDS011;5946;51.770;8.548;2023-04-07T00:39:39;17.43;;;13.43;;
11777;SDS011;5946;51.770;8.548;2023-04-07T00:42:05;17.47;;;14.17;;
11777;SDS011;5946;51.770;8.548;2023-04-07T00:44:32;17.23;;;13.40;;
11777;SDS011;5946;51.770;8.548;2023-04-07T00:46:58;18.63;;;13.70;;
11777;SDS011;5946;51.770;8.548;2023-04-07T00:49:24;19.17;;;14.67;;
11777;SDS011;5946;51.770;8.548;2023-04-07T00:51:52;20.90;;;14.80;;
11777;SDS011;5946;51.770;8.548;2023-04-07T00:54:18;17.83;;;13.73;;
11777;SDS011;5946;51.770;8.548;2023-04-07T00:56:44;19.03;;;14.77;;
11777;SDS011;5946;51.770;8.548;2023-04-07T00:59:10;19.63;;;14.37;;
11777;SDS011;5946;51.770;8.548;2023-04-07T01:04:09;18.37;;;14.43;;
11777;SDS011;5946;51.770;8.548;2023-04-07T01:06:37;21.33;;;15.27;;
11777;SDS011;5946;51.770;8.548;2023-04-07T01:09:15;20.97;;;14.83;;
11777;SDS011;5946;51.770;8.548;2023-04-07T01:14:15;19.80;;;14.70;;
11777;SDS011;5946;51.770;8.548;2023-04-07T01:16:47;19.00;;;13.50;;
11777;SDS011;5946;51.770;8.548;2023-04-07T01:21:59;20.50;;;14.87;;
11777;SDS011;5946;51.770;8.548;2023-04-07T01:29:39;19.70;;;14.33;;
11777;SDS011;5946;51.770;8.548;2023-04-07T01:32:11;20.37;;;14.30;;
11777;SDS011;5946;51.770;8.548;2023-04-07T01:34:38;20.60;;;14.63;;
11777;SDS011;5946;51.770;8.548;2023-04-07T01:37:05;20.17;;;14.03;;
11777;SDS011;5946;51.770;8.548;2023-04-07T01:39:32;19.93;;;14.10;;
11777;SDS011;5946;51.770;8.548;2023-04-07T01:41:58;19.40;;;14.03;;
11777;SDS011;5946;51.770;8.548;2023-04-07T01:44:26;19.27;;;14.13;;
11777;SDS011;5946;51.770;8.548;2023-04-07T01:46:53;17.23;;;13.37;;
11777;SDS011;5946;51.770;8.548;2023-04-07T01:49:19;18.37;;;13.37;;
11777;SDS011;5946;51.770;8.548;2023-04-07T01:51:45;17.97;;;13.37;;
11777;SDS011;5946;51.770;8.548;2023-04-07T01:54:15;16.70;;;12.67;;
11777;SDS011;5946;51.770;8.548;2023-04-07T01:56:42;16.40;;;13.17;;
11777;SDS011;5946;51.770;8.548;2023-04-07T01:59:09;18.50;;;13.73;;
11777;SDS011;5946;51.770;8.548;2023-04-07T02:01:35;18.60;;;13.77;;
11777;SDS011;5946;51.770;8.548;2023-04-07T02:04:04;18.00;;;13.77;;
11777;SDS011;5946;51.770;8.548;2023-04-07T02:06:32;19.87;;;14.20;;
11777;SDS011;5946;51.770;8.548;2023-04-07T02:09:01;16.60;;;12.93;;
11777;SDS011;5946;51.770;8.548;2023-04-07T02:11:29;18.47;;;13.43;;
11777;SDS011;5946;51.770;8.548;2023-04-07T02:13:57;19.80;;;13.50;;
11777;SDS011;5946;51.770;8.548;2023-04-07T02:16:25;21.70;;;14.60;;
11777;SDS011;5946;51.770;8.548;2023-04-07T02:18:52;19.73;;;14.00;;
11777;SDS011;5946;51.770;8.548;2023-04-07T02:21:19;18.47;;;14.47;;
11777;SDS011;5946;51.770;8.548;2023-04-07T02:23:45;15.90;;;13.00;;
11777;SDS011;5946;51.770;8.548;2023-04-07T02:26:11;18.40;;;14.20;;
11777;SDS011;5946;51.770;8.548;2023-04-07T02:28:37;18.40;;;13.90;;
11777;SDS011;5946;51.770;8.548;2023-04-07T02:31:03;17.30;;;13.73;;
11777;SDS011;5946;51.770;8.548;2023-04-07T02:33:30;20.20;;;14.10;;
11777;SDS011;5946;51.770;8.548;2023-04-07T02:35:56;20.03;;;14.27;;
11777;SDS011;5946;51.770;8.548;2023-04-07T02:38:21;19.10;;;14.03;;
11777;SDS011;5946;51.770;8.548;2023-04-07T02:40:47;17.63;;;13.70;;
11777;SDS011;5946;51.770;8.548;2023-04-07T02:43:13;20.23;;;14.20;;
11777;SDS011;5946;51.770;8.548;2023-04-07T02:45:41;20.47;;;14.63;;
11777;SDS011;5946;51.770;8.548;2023-04-07T02:48:07;18.67;;;13.83;;
11777;SDS011;5946;51.770;8.548;2023-04-07T02:50:33;18.63;;;13.93;;
11777;SDS011;5946;51.770;8.548;2023-04-07T02:52:59;20.37;;;14.60;;
11777;SDS011;5946;51.770;8.548;2023-04-07T02:55:25;19.33;;;14.00;;
11777;SDS011;5946;51.770;8.548;2023-04-07T02:57:51;21.97;;;15.27;;
11777;SDS011;5946;51.770;8.548;2023-04-07T03:00:17;20.10;;;14.53;;
11777;SDS011;5946;51.770;8.548;2023-04-07T03:02:43;18.93;;;14.33;;
11777;SDS011;5946;51.770;8.548;2023-04-07T03:05:09;18.93;;;14.07;;
11777;SDS011;5946;51.770;8.548;2023-04-07T03:07:35;19.77;;;15.13;;
11777;SDS011;5946;51.770;8.548;2023-04-07T03:10:01;18.83;;;14.93;;
11777;SDS011;5946;51.770;8.548;2023-04-07T03:12:27;23.03;;;16.10;;
11777;SDS011;5946;51.770;8.548;2023-04-07T03:14:53;23.10;;;15.60;;
11777;SDS011;5946;51.770;8.548;2023-04-07T03:17:19;26.60;;;17.07;;
11777;SDS011;5946;51.770;8.548;2023-04-07T03:19:45;24.73;;;16.50;;
11777;SDS011;5946;51.770;8.548;2023-04-07T03:22:11;21.97;;;15.93;;
11777;SDS011;5946;51.770;8.548;2023-04-07T03:24:36;24.40;;;16.80;;
11777;SDS011;5946;51.770;8.548;2023-04-07T03:27:04;26.70;;;17.17;;
11777;SDS011;5946;51.770;8.548;2023-04-07T03:29:30;22.87;;;16.77;;
11777;SDS011;5946;51.770;8.548;2023-04-07T03:31:56;22.70;;;16.63;;
11777;SDS011;5946;51.770;8.548;2023-04-07T03:34:22;24.07;;;16.97;;
11777;SDS011;5946;51.770;8.548;2023-04-07T03:36:48;24.77;;;16.37;;
11777;SDS011;5946;51.770;8.548;2023-04-07T03:39:14;23.33;;;17.03;;
11777;SDS011;5946;51.770;8.548;2023-04-07T03:41:40;22.33;;;16.00;;
11777;SDS011;5946;51.770;8.548;2023-04-07T03:44:06;23.17;;;16.70;;
11777;SDS011;5946;51.770;8.548;2023-04-07T03:46:32;24.10;;;16.87;;
11777;SDS011;5946;51.770;8.548;2023-04-07T03:48:58;22.23;;;16.67;;
11777;SDS011;5946;51.770;8.548;2023-04-07T03:51:24;23.33;;;17.17;;
11777;SDS011;5946;51.770;8.548;2023-04-07T03:53:51;21.33;;;15.50;;
11777;SDS011;5946;51.770;8.548;2023-04-07T03:56:17;23.53;;;17.10;;
11777;SDS011;5946;51.770;8.548;2023-04-07T03:58:43;22.67;;;16.90;;
11777;SDS011;5946;51.770;8.548;2023-04-07T04:01:10;25.87;;;16.97;;
11777;SDS011;5946;51.770;8.548;2023-04-07T04:03:36;21.77;;;15.33;;
11777;SDS011;5946;51.770;8.548;2023-04-07T04:06:02;21.50;;;15.50;;
11777;SDS011;5946;51.770;8.548;2023-04-07T04:08:29;25.00;;;17.17;;
11777;SDS011;5946;51.770;8.548;2023-04-07T04:10:55;25.53;;;16.93;;
11777;SDS011;5946;51.770;8.548;2023-04-07T04:13:21;21.53;;;16.40;;
11777;SDS011;5946;51.770;8.548;2023-04-07T04:15:47;21.63;;;15.83;;
11777;SDS011;5946;51.770;8.548;2023-04-07T04:18:13;23.50;;;15.67;;
11777;SDS011;5946;51.770;8.548;2023-04-07T04:20:39;23.23;;;16.10;;
11777;SDS011;5946;51.770;8.548;2023-04-07T04:23:04;23.77;;;15.73;;
11777;SDS011;5946;51.770;8.548;2023-04-07T04:25:30;21.97;;;16.10;;
11777;SDS011;5946;51.770;8.548;2023-04-07T04:27:56;24.93;;;16.27;;
11777;SDS011;5946;51.770;8.548;2023-04-07T04:30:22;23.27;;;16.80;;
11777;SDS011;5946;51.770;8.548;2023-04-07T04:32:49;24.80;;;17.10;;
11777;SDS011;5946;51.770;8.548;2023-04-07T04:35:15;23.30;;;15.53;;
11777;SDS011;5946;51.770;8.548;2023-04-07T04:37:40;25.33;;;17.53;;
11777;SDS011;5946;51.770;8.548;2023-04-07T04:40:07;23.90;;;16.53;;
11777;SDS011;5946;51.770;8.548;2023-04-07T04:42:33;21.50;;;15.40;;
11777;SDS011;5946;51.770;8.548;2023-04-07T04:44:59;23.83;;;15.97;;
11777;SDS011;5946;51.770;8.548;2023-04-07T04:47:25;25.70;;;17.80;;
11777;SDS011;5946;51.770;8.548;2023-04-07T04:49:51;25.17;;;17.30;;
11777;SDS011;5946;51.770;8.548;2023-04-07T04:52:17;24.50;;;17.40;;
11777;SDS011;5946;51.770;8.548;2023-04-07T04:54:43;26.63;;;18.00;;
11777;SDS011;5946;51.770;8.548;2023-04-07T04:57:09;26.50;;;17.20;;
11777;SDS011;5946;51.770;8.548;2023-04-07T04:59:35;28.20;;;18.40;;
11777;SDS011;5946;51.770;8.548;2023-04-07T05:02:01;27.50;;;17.77;;
11777;SDS011;5946;51.770;8.548;2023-04-07T05:04:27;24.83;;;17.20;;
11777;SDS011;5946;51.770;8.548;2023-04-07T05:06:53;25.23;;;17.47;;
11777;SDS011;5946;51.770;8.548;2023-04-07T05:09:19;26.97;;;17.43;;
11777;SDS011;5946;51.770;8.548;2023-04-07T05:11:45;28.50;;;18.67;;
11777;SDS011;5946;51.770;8.548;2023-04-07T05:14:11;28.97;;;18.60;;
11777;SDS011;5946;51.770;8.548;2023-04-07T05:16:37;29.73;;;18.63;;
11777;SDS011;5946;51.770;8.548;2023-04-07T05:19:03;24.60;;;16.57;;
11777;SDS011;5946;51.770;8.548;2023-04-07T05:21:29;26.80;;;18.17;;
11777;SDS011;5946;51.770;8.548;2023-04-07T05:23:55;28.73;;;18.67;;
11777;SDS011;5946;51.770;8.548;2023-04-07T05:26:21;28.33;;;17.87;;
11777;SDS011;5946;51.770;8.548;2023-04-07T05:28:47;26.30;;;17.30;;
11777;SDS011;5946;51.770;8.548;2023-04-07T05:31:13;27.37;;;17.80;;
11777;SDS011;5946;51.770;8.548;2023-04-07T05:33:39;24.13;;;16.70;;
11777;SDS011;5946;51.770;8.548;2023-04-07T05:36:05;24.13;;;16.97;;
11777;SDS011;5946;51.770;8.548;2023-04-07T05:38:31;26.97;;;17.37;;
11777;SDS011;5946;51.770;8.548;2023-04-07T05:40:57;28.03;;;17.83;;
11777;SDS011;5946;51.770;8.548;2023-04-07T05:43:23;22.97;;;15.80;;
11777;SDS011;5946;51.770;8.548;2023-04-07T05:45:49;23.17;;;15.73;;
11777;SDS011;5946;51.770;8.548;2023-04-07T05:48:15;23.83;;;16.40;;
11777;SDS011;5946;51.770;8.548;2023-04-07T05:50:41;23.17;;;16.27;;
11777;SDS011;5946;51.770;8.548;2023-04-07T05:53:07;25.47;;;16.40;;
11777;SDS011;5946;51.770;8.548;2023-04-07T05:55:33;24.97;;;16.53;;
11777;SDS011;5946;51.770;8.548;2023-04-07T05:58:00;24.40;;;15.87;;
11777;SDS011;5946;51.770;8.548;2023-04-07T06:00:26;22.57;;;16.93;;
11777;SDS011;5946;51.770;8.548;2023-04-07T06:02:52;24.40;;;16.63;;
11777;SDS011;5946;51.770;8.548;2023-04-07T06:05:18;23.13;;;16.90;;
11777;SDS011;5946;51.770;8.548;2023-04-07T06:07:44;24.37;;;16.80;;
11777;SDS011;5946;51.770;8.548;2023-04-07T06:10:10;23.10;;;16.53;;
11777;SDS011;5946;51.770;8.548;2023-04-07T06:12:36;24.87;;;16.87;;
11777;SDS011;5946;51.770;8.548;2023-04-07T06:15:02;21.87;;;16.30;;
11777;SDS011;5946;51.770;8.548;2023-04-07T06:17:28;23.87;;;16.77;;
11777;SDS011;5946;51.770;8.548;2023-04-07T06:19:54;21.87;;;15.80;;
11777;SDS011;5946;51.770;8.548;2023-04-07T06:22:20;23.07;;;16.73;;
11777;SDS011;5946;51.770;8.548;2023-04-07T06:24:46;21.50;;;15.37;;
11777;SDS011;5946;51.770;8.548;2023-04-07T06:27:12;23.17;;;15.40;;
11777;SDS011;5946;51.770;8.548;2023-04-07T06:29:38;22.43;;;16.37;;
11777;SDS011;5946;51.770;8.548;2023-04-07T06:32:04;22.10;;;15.60;;
11777;SDS011;5946;51.770;8.548;2023-04-07T06:34:30;20.73;;;15.97;;
11777;SDS011;5946;51.770;8.548;2023-04-07T06:36:56;18.07;;;14.53;;
11777;SDS011;5946;51.770;8.548;2023-04-07T06:39:22;18.63;;;14.13;;
11777;SDS011;5946;51.770;8.548;2023-04-07T06:41:50;17.43;;;13.50;;
11777;SDS011;5946;51.770;8.548;2023-04-07T06:44:15;19.80;;;13.47;;
11777;SDS011;5946;51.770;8.548;2023-04-07T06:46:41;16.57;;;12.53;;
11777;SDS011;5946;51.770;8.548;2023-04-07T06:49:08;17.93;;;13.03;;
11777;SDS011;5946;51.770;8.548;2023-04-07T06:51:34;16.17;;;12.30;;
11777;SDS011;5946;51.770;8.548;2023-04-07T06:54:00;14.67;;;11.50;;
11777;SDS011;5946;51.770;8.548;2023-04-07T06:56:26;17.40;;;12.40;;
11777;SDS011;5946;51.770;8.548;2023-04-07T06:58:52;15.07;;;12.03;;
11777;SDS011;5946;51.770;8.548;2023-04-07T07:01:18;15.17;;;11.40;;
11777;SDS011;5946;51.770;8.548;2023-04-07T07:03:44;16.13;;;11.73;;
11777;SDS011;5946;51.770;8.548;2023-04-07T07:06:10;13.80;;;11.60;;
11777;SDS011;5946;51.770;8.548;2023-04-07T07:08:36;15.53;;;11.73;;
11777;SDS011;5946;51.770;8.548;2023-04-07T07:11:02;15.90;;;10.93;;
11777;SDS011;5946;51.770;8.548;2023-04-07T07:13:28;13.40;;;10.60;;
11777;SDS011;5946;51.770;8.548;2023-04-07T07:15:54;13.57;;;10.50;;
11777;SDS011;5946;51.770;8.548;2023-04-07T07:18:20;11.50;;;9.27;;
11777;SDS011;5946;51.770;8.548;2023-04-07T07:20:46;10.00;;;8.47;;
11777;SDS011;5946;51.770;8.548;2023-04-07T07:23:12;10.27;;;8.73;;
11777;SDS011;5946;51.770;8.548;2023-04-07T07:25:38;9.50;;;8.00;;
11777;SDS011;5946;51.770;8.548;2023-04-07T07:28:04;10.30;;;8.17;;
11777;SDS011;5946;51.770;8.548;2023-04-07T07:30:30;8.30;;;7.33;;
11777;SDS011;5946;51.770;8.548;2023-04-07T07:32:56;7.97;;;7.07;;
11777;SDS011;5946;51.770;8.548;2023-04-07T07:35:22;7.87;;;7.07;;
11777;SDS011;5946;51.770;8.548;2023-04-07T07:37:49;8.37;;;6.70;;
11777;SDS011;5946;51.770;8.548;2023-04-07T07:40:15;7.80;;;6.60;;
11777;SDS011;5946;51.770;8.548;2023-04-07T07:42:41;6.87;;;6.17;;
11777;SDS011;5946;51.770;8.548;2023-04-07T07:45:07;7.37;;;6.50;;
11777;SDS011;5946;51.770;8.548;2023-04-07T07:47:34;6.80;;;6.03;;
11777;SDS011;5946;51.770;8.548;2023-04-07T07:50:01;7.30;;;6.53;;
11777;SDS011;5946;51.770;8.548;2023-04-07T07:52:27;6.67;;;5.63;;
11777;SDS011;5946;51.770;8.548;2023-04-07T07:54:53;6.60;;;5.83;;
11777;SDS011;5946;51.770;8.548;2023-04-07T07:57:19;6.67;;;5.97;;
11777;SDS011;5946;51.770;8.548;2023-04-07T07:59:45;8.03;;;5.97;;
11777;SDS011;5946;51.770;8.548;2023-04-07T08:02:11;5.47;;;4.97;;
11777;SDS011;5946;51.770;8.548;2023-04-07T08:04:37;6.40;;;5.27;;
11777;SDS011;5946;51.770;8.548;2023-04-07T08:07:03;7.33;;;6.13;;
11777;SDS011;5946;51.770;8.548;2023-04-07T08:09:29;5.50;;;5.00;;
11777;SDS011;5946;51.770;8.548;2023-04-07T08:11:58;5.30;;;4.80;;
11777;SDS011;5946;51.770;8.548;2023-04-07T08:14:24;6.67;;;5.23;;
11777;SDS011;5946;51.770;8.548;2023-04-07T08:16:50;6.13;;;5.50;;
11777;SDS011;5946;51.770;8.548;2023-04-07T08:19:16;6.00;;;5.03;;
11777;SDS011;5946;51.770;8.548;2023-04-07T08:21:42;5.03;;;4.57;;
11777;SDS011;5946;51.770;8.548;2023-04-07T08:24:08;6.03;;;4.63;;
11777;SDS011;5946;51.770;8.548;2023-04-07T08:26:34;6.37;;;4.90;;
11777;SDS011;5946;51.770;8.548;2023-04-07T08:29:00;5.07;;;4.57;;
11777;SDS011;5946;51.770;8.548;2023-04-07T08:31:26;5.27;;;4.77;;
11777;SDS011;5946;51.770;8.548;2023-04-07T08:33:52;4.50;;;4.10;;
11777;SDS011;5946;51.770;8.548;2023-04-07T08:36:22;6.23;;;4.27;;
11777;SDS011;5946;51.770;8.548;2023-04-07T08:38:48;5.40;;;4.40;;
11777;SDS011;5946;51.770;8.548;2023-04-07T08:41:16;4.50;;;4.10;;
11777;SDS011;5946;51.770;8.548;2023-04-07T08:43:43;4.83;;;4.33;;
11777;SDS011;5946;51.770;8.548;2023-04-07T08:46:11;5.20;;;4.67;;
11777;SDS011;5946;51.770;8.548;2023-04-07T08:48:37;6.80;;;4.30;;
11777;SDS011;5946;51.770;8.548;2023-04-07T08:51:04;4.90;;;4.40;;
11777;SDS011;5946;51.770;8.548;2023-04-07T08:53:40;4.60;;;4.20;;
11777;SDS011;5946;51.770;8.548;2023-04-07T08:56:07;4.43;;;3.87;;
11777;SDS011;5946;51.770;8.548;2023-04-07T08:58:34;4.30;;;3.87;;
11777;SDS011;5946;51.770;8.548;2023-04-07T09:01:02;4.30;;;3.90;;
11777;SDS011;5946;51.770;8.548;2023-04-07T09:03:29;5.23;;;4.20;;
11777;SDS011;5946;51.770;8.548;2023-04-07T09:05:56;4.63;;;4.13;;
11777;SDS011;5946;51.770;8.548;2023-04-07T09:08:23;4.73;;;3.70;;
11777;SDS011;5946;51.770;8.548;2023-04-07T09:10:48;4.60;;;4.20;;
11777;SDS011;5946;51.770;8.548;2023-04-07T09:13:15;4.57;;;4.17;;
11777;SDS011;5946;51.770;8.548;2023-04-07T09:15:41;6.00;;;4.77;;
11777;SDS011;5946;51.770;8.548;2023-04-07T09:18:07;7.93;;;4.03;;
11777;SDS011;5946;51.770;8.548;2023-04-07T09:23:27;5.70;;;4.50;;
11777;SDS011;5946;51.770;8.548;2023-04-07T09:25:56;4.77;;;4.37;;
11777;SDS011;5946;51.770;8.548;2023-04-07T09:28:25;4.60;;;3.90;;
11777;SDS011;5946;51.770;8.548;2023-04-07T09:31:02;4.80;;;4.00;;
11777;SDS011;5946;51.770;8.548;2023-04-07T09:33:29;5.17;;;4.37;;
11777;SDS011;5946;51.770;8.548;2023-04-07T09:35:55;5.83;;;4.43;;
11777;SDS011;5946;51.770;8.548;2023-04-07T09:38:21;5.07;;;4.57;;
11777;SDS011;5946;51.770;8.548;2023-04-07T09:40:47;7.20;;;5.53;;
11777;SDS011;5946;51.770;8.548;2023-04-07T09:43:15;4.87;;;4.23;;
11777;SDS011;5946;51.770;8.548;2023-04-07T09:45:41;6.43;;;5.30;;
11777;SDS011;5946;51.770;8.548;2023-04-07T09:48:08;4.53;;;4.00;;
11777;SDS011;5946;51.770;8.548;2023-04-07T09:50:42;5.27;;;4.50;;
11777;SDS011;5946;51.770;8.548;2023-04-07T09:53:13;5.30;;;4.80;;
11777;SDS011;5946;51.770;8.548;2023-04-07T09:55:39;4.97;;;4.13;;
11777;SDS011;5946;51.770;8.548;2023-04-07T09:58:05;4.10;;;3.60;;
11777;SDS011;5946;51.770;8.548;2023-04-07T10:00:32;4.03;;;3.60;;
11777;SDS011;5946;51.770;8.548;2023-04-07T10:02:58;4.93;;;3.40;;
11777;SDS011;5946;51.770;8.548;2023-04-07T10:05:25;2.97;;;2.70;;
11777;SDS011;5946;51.770;8.548;2023-04-07T10:07:52;4.80;;;4.30;;
11777;SDS011;5946;51.770;8.548;2023-04-07T10:10:18;4.03;;;3.60;;
11777;SDS011;5946;51.770;8.548;2023-04-07T10:12:44;5.93;;;5.30;;
11777;SDS011;5946;51.770;8.548;2023-04-07T10:15:11;7.57;;;5.67;;
11777;SDS011;5946;51.770;8.548;2023-04-07T10:17:41;4.17;;;3.77;;
11777;SDS011;5946;51.770;8.548;2023-04-07T10:20:11;4.37;;;3.97;;
11777;SDS011;5946;51.770;8.548;2023-04-07T10:22:37;5.57;;;5.07;;
11777;SDS011;5946;51.770;8.548;2023-04-07T10:25:07;4.73;;;4.23;;
11777;SDS011;5946;51.770;8.548;2023-04-07T10:27:39;4.93;;;3.90;;
11777;SDS011;5946;51.770;8.548;2023-04-07T10:30:10;4.73;;;4.23;;
11777;SDS011;5946;51.770;8.548;2023-04-07T10:32:48;8.10;;;6.50;;
11777;SDS011;5946;51.770;8.548;2023-04-07T10:35:14;4.93;;;4.43;;
11777;SDS011;5946;51.770;8.548;2023-04-07T10:37:42;4.53;;;4.10;;
11777;SDS011;5946;51.770;8.548;2023-04-07T10:40:27;4.03;;;3.63;;
11777;SDS011;5946;51.770;8.548;2023-04-07T10:42:53;9.30;;;7.70;;
11777;SDS011;5946;51.770;8.548;2023-04-07T10:45:50;10.97;;;8.07;;
11777;SDS011;5946;51.770;8.548;2023-04-07T10:48:10;14.13;;;10.60;;
11777;SDS011;5946;51.770;8.548;2023-04-07T10:50:36;7.03;;;6.33;;
11777;SDS011;5946;51.770;8.548;2023-04-07T10:53:20;4.10;;;3.70;;
11777;SDS011;5946;51.770;8.548;2023-04-07T10:55:46;3.97;;;3.00;;
11777;SDS011;5946;51.770;8.548;2023-04-07T10:58:25;4.00;;;3.70;;
11777;SDS011;5946;51.770;8.548;2023-04-07T11:03:40;4.13;;;3.80;;
11777;SDS011;5946;51.770;8.548;2023-04-07T11:06:09;3.70;;;3.40;;
11777;SDS011;5946;51.770;8.548;2023-04-07T11:08:39;3.30;;;3.00;;
11777;SDS011;5946;51.770;8.548;2023-04-07T11:11:08;4.30;;;3.80;;
11777;SDS011;5946;51.770;8.548;2023-04-07T11:13:42;3.47;;;3.17;;
11777;SDS011;5946;51.770;8.548;2023-04-07T11:16:09;3.90;;;3.60;;
11777;SDS011;5946;51.770;8.548;2023-04-07T11:18:35;3.80;;;3.50;;
11777;SDS011;5946;51.770;8.548;2023-04-07T11:21:02;6.23;;;5.63;;
11777;SDS011;5946;51.770;8.548;2023-04-07T11:23:29;5.53;;;4.70;;
11777;SDS011;5946;51.770;8.548;2023-04-07T11:26:02;3.40;;;3.10;;
11777;SDS011;5946;51.770;8.548;2023-04-07T11:28:28;3.23;;;2.90;;
11777;SDS011;5946;51.770;8.548;2023-04-07T11:30:55;3.40;;;3.10;;
11777;SDS011;5946;51.770;8.548;2023-04-07T11:33:23;3.23;;;2.97;;
11777;SDS011;5946;51.770;8.548;2023-04-07T11:35:56;3.37;;;3.07;;
11777;SDS011;5946;51.770;8.548;2023-04-07T11:38:28;3.13;;;2.83;;
11777;SDS011;5946;51.770;8.548;2023-04-07T11:40:55;3.43;;;2.63;;
11777;SDS011;5946;51.770;8.548;2023-04-07T11:43:25;4.50;;;3.00;;
11777;SDS011;5946;51.770;8.548;2023-04-07T11:46:08;3.10;;;2.90;;
11777;SDS011;5946;51.770;8.548;2023-04-07T11:48:40;3.97;;;2.80;;
11777;SDS011;5946;51.770;8.548;2023-04-07T11:51:41;2.57;;;2.37;;
11777;SDS011;5946;51.770;8.548;2023-04-07T11:53:59;2.77;;;2.40;;
11777;SDS011;5946;51.770;8.548;2023-04-07T11:56:25;3.23;;;2.50;;
11777;SDS011;5946;51.770;8.548;2023-04-07T11:58:53;2.50;;;2.30;;
11777;SDS011;5946;51.770;8.548;2023-04-07T12:01:19;2.40;;;2.20;;
11777;SDS011;5946;51.770;8.548;2023-04-07T12:06:30;4.13;;;2.27;;
11777;SDS011;5946;51.770;8.548;2023-04-07T12:08:58;2.63;;;2.43;;
11777;SDS011;5946;51.770;8.548;2023-04-07T12:11:25;2.40;;;2.20;;
11777;SDS011;5946;51.770;8.548;2023-04-07T12:13:51;2.63;;;2.37;;
11777;SDS011;5946;51.770;8.548;2023-04-07T12:16:17;2.80;;;2.60;;
11777;SDS011;5946;51.770;8.548;2023-04-07T12:18:43;3.63;;;2.33;;
11777;SDS011;5946;51.770;8.548;2023-04-07T12:21:09;3.23;;;2.93;;
11777;SDS011;5946;51.770;8.548;2023-04-07T12:23:35;3.60;;;3.27;;
11777;SDS011;5946;51.770;8.548;2023-04-07T12:26:01;3.20;;;2.90;;
11777;SDS011;5946;51.770;8.548;2023-04-07T12:28:27;3.37;;;2.60;;
11777;SDS011;5946;51.770;8.548;2023-04-07T12:30:53;2.93;;;2.63;;
11777;SDS011;5946;51.770;8.548;2023-04-07T12:33:20;3.17;;;2.87;;
11777;SDS011;5946;51.770;8.548;2023-04-07T12:35:46;3.63;;;3.33;;
11777;SDS011;5946;51.770;8.548;2023-04-07T12:38:12;3.50;;;3.07;;
11777;SDS011;5946;51.770;8.548;2023-04-07T12:40:38;4.80;;;3.10;;
11777;SDS011;5946;51.770;8.548;2023-04-07T12:43:04;3.07;;;2.77;;
11777;SDS011;5946;51.770;8.548;2023-04-07T12:45:30;3.70;;;3.40;;
11777;SDS011;5946;51.770;8.548;2023-04-07T12:47:57;3.93;;;3.53;;
11777;SDS011;5946;51.770;8.548;2023-04-07T12:50:23;3.30;;;3.00;;
11777;SDS011;5946;51.770;8.548;2023-04-07T12:52:50;4.30;;;3.90;;
11777;SDS011;5946;51.770;8.548;2023-04-07T12:55:17;3.70;;;3.40;;
11777;SDS011;5946;51.770;8.548;2023-04-07T12:57:43;2.80;;;2.60;;
11777;SDS011;5946;51.770;8.548;2023-04-07T13:00:09;5.17;;;4.07;;
11777;SDS011;5946;51.770;8.548;2023-04-07T13:02:35;3.97;;;3.57;;
11777;SDS011;5946;51.770;8.548;2023-04-07T13:05:01;4.93;;;4.07;;
11777;SDS011;5946;51.770;8.548;2023-04-07T13:07:28;3.93;;;3.63;;
11777;SDS011;5946;51.770;8.548;2023-04-07T13:09:54;4.73;;;4.00;;
11777;SDS011;5946;51.770;8.548;2023-04-07T13:12:21;5.00;;;4.33;;
11777;SDS011;5946;51.770;8.548;2023-04-07T13:14:47;5.13;;;4.37;;
11777;SDS011;5946;51.770;8.548;2023-04-07T13:17:12;4.93;;;4.53;;
11777;SDS011;5946;51.770;8.548;2023-04-07T13:19:38;5.13;;;4.63;;
11777;SDS011;5946;51.770;8.548;2023-04-07T13:22:05;4.47;;;4.07;;
11777;SDS011;5946;51.770;8.548;2023-04-07T13:24:31;5.93;;;5.33;;
11777;SDS011;5946;51.770;8.548;2023-04-07T13:26:57;6.30;;;5.60;;
11777;SDS011;5946;51.770;8.548;2023-04-07T13:29:23;5.73;;;4.90;;
11777;SDS011;5946;51.770;8.548;2023-04-07T13:31:50;6.43;;;5.60;;
11777;SDS011;5946;51.770;8.548;2023-04-07T13:34:16;7.90;;;5.77;;
11777;SDS011;5946;51.770;8.548;2023-04-07T13:36:42;6.90;;;6.30;;
11777;SDS011;5946;51.770;8.548;2023-04-07T13:39:08;5.40;;;4.90;;
11777;SDS011;5946;51.770;8.548;2023-04-07T13:41:34;4.90;;;4.40;;
11777;SDS011;5946;51.770;8.548;2023-04-07T13:44:00;4.67;;;4.27;;
11777;SDS011;5946;51.770;8.548;2023-04-07T13:46:27;5.57;;;5.07;;
11777;SDS011;5946;51.770;8.548;2023-04-07T13:48:52;4.53;;;4.13;;
11777;SDS011;5946;51.770;8.548;2023-04-07T13:51:19;4.80;;;4.40;;
11777;SDS011;5946;51.770;8.548;2023-04-07T13:53:45;5.03;;;4.60;;
11777;SDS011;5946;51.770;8.548;2023-04-07T13:56:11;4.80;;;4.30;;
11777;SDS011;5946;51.770;8.548;2023-04-07T13:58:37;8.07;;;5.30;;
11777;SDS011;5946;51.770;8.548;2023-04-07T14:01:03;4.60;;;4.20;;
11777;SDS011;5946;51.770;8.548;2023-04-07T14:03:29;6.30;;;5.57;;
11777;SDS011;5946;51.770;8.548;2023-04-07T14:05:55;5.90;;;4.17;;
11777;SDS011;5946;51.770;8.548;2023-04-07T14:08:25;5.30;;;4.80;;
11777;SDS011;5946;51.770;8.548;2023-04-07T14:10:51;7.27;;;4.50;;
11777;SDS011;5946;51.770;8.548;2023-04-07T14:13:17;4.80;;;4.37;;
11777;SDS011;5946;51.770;8.548;2023-04-07T14:15:43;4.00;;;3.60;;
11777;SDS011;5946;51.770;8.548;2023-04-07T14:18:09;3.00;;;2.80;;
11777;SDS011;5946;51.770;8.548;2023-04-07T14:20:35;3.20;;;2.90;;
11777;SDS011;5946;51.770;8.548;2023-04-07T14:23:01;3.93;;;3.53;;
11777;SDS011;5946;51.770;8.548;2023-04-07T14:25:27;3.40;;;3.10;;
11777;SDS011;5946;51.770;8.548;2023-04-07T14:27:53;3.40;;;3.10;;
11777;SDS011;5946;51.770;8.548;2023-04-07T14:30:19;3.57;;;3.13;;
11777;SDS011;5946;51.770;8.548;2023-04-07T14:32:45;5.40;;;4.10;;
11777;SDS011;5946;51.770;8.548;2023-04-07T14:35:11;3.97;;;3.43;;
11777;SDS011;5946;51.770;8.548;2023-04-07T14:37:37;4.03;;;3.63;;
11777;SDS011;5946;51.770;8.548;2023-04-07T14:40:03;3.90;;;3.57;;
11777;SDS011;5946;51.770;8.548;2023-04-07T14:42:29;4.80;;;4.30;;
11777;SDS011;5946;51.770;8.548;2023-04-07T14:44:56;3.77;;;3.47;;
11777;SDS011;5946;51.770;8.548;2023-04-07T14:47:22;3.60;;;3.30;;
11777;SDS011;5946;51.770;8.548;2023-04-07T14:49:48;5.33;;;3.57;;
11777;SDS011;5946;51.770;8.548;2023-04-07T14:52:14;5.20;;;3.90;;
11777;SDS011;5946;51.770;8.548;2023-04-07T14:54:40;4.40;;;4.00;;
11777;SDS011;5946;51.770;8.548;2023-04-07T14:57:06;8.03;;;3.77;;
11777;SDS011;5946;51.770;8.548;2023-04-07T14:59:32;3.90;;;3.60;;
11777;SDS011;5946;51.770;8.548;2023-04-07T15:01:58;4.97;;;4.20;;
11777;SDS011;5946;51.770;8.548;2023-04-07T15:04:24;5.13;;;4.30;;
11777;SDS011;5946;51.770;8.548;2023-04-07T15:06:50;4.63;;;4.20;;